Stony Knoll, North Carolina
Current Conditions -  °F | °C
As of 12:35 AM on Thursday 18 Dec 2014 (Local Time) from KMWK Reporting Station
Clear Clear  
Wind Chill: 39°   Ceiling: Unl
Heat Index: 43°   Visibility: 10mi
Dew Point: 29°   Wind: 6mph
Humidity: 59%   Direction: 300°WNW
Pressure: 30.09"   Gusts: NA
Location:  36.3461°N, 80.7011°W
Report Text: KMWK 180535Z AUTO 30005KT 10SM CLR 06/M01 A3009 RMK AO2 T00591015
Loading
Personal Weather Stations






























Interactive Weather Map New forecast layout! Learn more

10-Day Weather Forecast

Advertisements
Track Severe Weather on mobile